sensor_id;sensor_type;location;lat;lon;timestamp;pressure;altitude;pressure_sealevel;temperature;humidity
64053;BME280;50299;49.524;8.536;2023-02-23T00:01:36;100186.41;;;8.20;79.52
64053;BME280;50299;49.524;8.536;2023-02-23T00:04:03;100184.44;;;8.12;87.65
64053;BME280;50299;49.524;8.536;2023-02-23T00:06:30;100184.38;;;7.95;81.46
64053;BME280;50299;49.524;8.536;2023-02-23T00:08:58;100190.34;;;7.88;86.12
64053;BME280;50299;49.524;8.536;2023-02-23T00:11:26;100191.13;;;7.80;85.03
64053;BME280;50299;49.524;8.536;2023-02-23T00:13:54;100182.00;;;7.71;86.89
64053;BME280;50299;49.524;8.536;2023-02-23T00:16:23;100176.31;;;7.67;85.36
64053;BME280;50299;49.524;8.536;2023-02-23T00:18:53;100175.63;;;7.53;85.10
64053;BME280;50299;49.524;8.536;2023-02-23T00:21:22;100178.09;;;7.63;90.42
64053;BME280;50299;49.524;8.536;2023-02-23T00:23:52;100183.25;;;7.64;85.45
64053;BME280;50299;49.524;8.536;2023-02-23T00:26:20;100175.00;;;7.64;86.90
64053;BME280;50299;49.524;8.536;2023-02-23T00:28:48;100179.22;;;7.62;88.48
64053;BME280;50299;49.524;8.536;2023-02-23T00:31:16;100173.03;;;7.56;88.29
64053;BME280;50299;49.524;8.536;2023-02-23T00:33:43;100173.34;;;7.55;89.87
64053;BME280;50299;49.524;8.536;2023-02-23T00:36:12;100179.63;;;7.78;92.19
64053;BME280;50299;49.524;8.536;2023-02-23T00:38:40;100178.84;;;7.86;92.26
64053;BME280;50299;49.524;8.536;2023-02-23T00:41:16;100177.94;;;7.99;92.27
64053;BME280;50299;49.524;8.536;2023-02-23T00:43:45;100179.88;;;7.99;90.64
64053;BME280;50299;49.524;8.536;2023-02-23T00:46:19;100181.50;;;8.08;92.10
64053;BME280;50299;49.524;8.536;2023-02-23T00:48:49;100170.84;;;8.07;91.54
64053;BME280;50299;49.524;8.536;2023-02-23T00:51:17;100169.53;;;8.04;89.84
64053;BME280;50299;49.524;8.536;2023-02-23T00:53:44;100175.00;;;7.96;86.48
64053;BME280;50299;49.524;8.536;2023-02-23T00:56:12;100172.06;;;7.92;90.80
64053;BME280;50299;49.524;8.536;2023-02-23T00:58:40;100172.47;;;7.77;86.50
64053;BME280;50299;49.524;8.536;2023-02-23T01:01:08;100169.34;;;7.61;86.92
64053;BME280;50299;49.524;8.536;2023-02-23T01:03:35;100169.97;;;7.58;86.56
64053;BME280;50299;49.524;8.536;2023-02-23T01:06:04;100169.03;;;7.62;91.48
64053;BME280;50299;49.524;8.536;2023-02-23T01:08:37;100169.41;;;7.70;89.15
64053;BME280;50299;49.524;8.536;2023-02-23T01:11:08;100170.34;;;7.65;86.03
64053;BME280;50299;49.524;8.536;2023-02-23T01:13:36;100173.91;;;7.66;90.28
64053;BME280;50299;49.524;8.536;2023-02-23T01:16:07;100175.69;;;7.70;90.30
64053;BME280;50299;49.524;8.536;2023-02-23T01:18:34;100172.19;;;7.78;90.60
64053;BME280;50299;49.524;8.536;2023-02-23T01:21:02;100170.72;;;7.81;90.35
64053;BME280;50299;49.524;8.536;2023-02-23T01:23:31;100173.03;;;7.87;93.31
64053;BME280;50299;49.524;8.536;2023-02-23T01:25:58;100174.78;;;7.83;89.97
64053;BME280;50299;49.524;8.536;2023-02-23T01:28:24;100172.91;;;7.61;88.54
64053;BME280;50299;49.524;8.536;2023-02-23T01:30:50;100169.47;;;7.56;85.61
64053;BME280;50299;49.524;8.536;2023-02-23T01:33:17;100173.16;;;7.51;91.10
64053;BME280;50299;49.524;8.536;2023-02-23T01:35:44;100169.84;;;7.63;91.11
64053;BME280;50299;49.524;8.536;2023-02-23T01:38:11;100165.31;;;7.67;89.85
64053;BME280;50299;49.524;8.536;2023-02-23T01:40:42;100167.94;;;7.72;87.69
64053;BME280;50299;49.524;8.536;2023-02-23T01:43:14;100169.25;;;7.75;88.47
64053;BME280;50299;49.524;8.536;2023-02-23T01:45:43;100162.44;;;7.72;88.27
64053;BME280;50299;49.524;8.536;2023-02-23T01:48:15;100170.22;;;7.79;91.81
64053;BME280;50299;49.524;8.536;2023-02-23T01:53:15;100163.19;;;7.64;87.95
64053;BME280;50299;49.524;8.536;2023-02-23T01:55:42;100163.16;;;7.55;88.69
64053;BME280;50299;49.524;8.536;2023-02-23T01:58:13;100161.47;;;7.46;89.66
64053;BME280;50299;49.524;8.536;2023-02-23T02:00:44;100161.22;;;7.56;89.51
64053;BME280;50299;49.524;8.536;2023-02-23T02:03:18;100162.53;;;7.58;86.77
64053;BME280;50299;49.524;8.536;2023-02-23T02:05:49;100160.09;;;7.34;87.17
64053;BME280;50299;49.524;8.536;2023-02-23T02:08:16;100156.91;;;7.41;89.94
64053;BME280;50299;49.524;8.536;2023-02-23T02:10:44;100159.09;;;7.30;86.61
64053;BME280;50299;49.524;8.536;2023-02-23T02:13:18;100155.50;;;7.21;86.17
64053;BME280;50299;49.524;8.536;2023-02-23T02:15:58;100157.66;;;7.33;90.37
64053;BME280;50299;49.524;8.536;2023-02-23T02:18:41;100161.38;;;7.28;86.00
64053;BME280;50299;49.524;8.536;2023-02-23T02:24:27;100145.88;;;7.32;91.16
64053;BME280;50299;49.524;8.536;2023-02-23T02:27:40;100143.59;;;7.34;89.27
64053;BME280;50299;49.524;8.536;2023-02-23T02:36:24;100141.78;;;7.30;88.68
64053;BME280;50299;49.524;8.536;2023-02-23T02:39:07;100143.22;;;7.27;88.59
64053;BME280;50299;49.524;8.536;2023-02-23T02:41:52;100137.94;;;7.08;88.73
64053;BME280;50299;49.524;8.536;2023-02-23T02:44:39;100136.63;;;7.06;87.60
64053;BME280;50299;49.524;8.536;2023-02-23T02:47:12;100142.50;;;7.13;92.50
64053;BME280;50299;49.524;8.536;2023-02-23T02:49:51;100135.81;;;7.28;92.65
64053;BME280;50299;49.524;8.536;2023-02-23T02:52:28;100141.38;;;7.14;88.08
64053;BME280;50299;49.524;8.536;2023-02-23T02:55:04;100132.59;;;7.03;88.09
64053;BME280;50299;49.524;8.536;2023-02-23T02:57:35;100133.25;;;6.86;85.63
64053;BME280;50299;49.524;8.536;2023-02-23T03:00:40;100140.44;;;6.96;89.64
64053;BME280;50299;49.524;8.536;2023-02-23T03:03:41;100130.50;;;7.09;91.13
64053;BME280;50299;49.524;8.536;2023-02-23T03:06:42;100129.47;;;7.27;91.90
64053;BME280;50299;49.524;8.536;2023-02-23T03:09:40;100127.19;;;7.21;90.10
64053;BME280;50299;49.524;8.536;2023-02-23T03:13:06;100125.28;;;7.30;90.19
64053;BME280;50299;49.524;8.536;2023-02-23T03:16:36;100126.66;;;7.41;90.66
64053;BME280;50299;49.524;8.536;2023-02-23T03:19:25;100126.47;;;7.37;89.30
64053;BME280;50299;49.524;8.536;2023-02-23T03:22:23;100122.44;;;7.44;92.63
64053;BME280;50299;49.524;8.536;2023-02-23T03:25:53;100118.47;;;7.50;91.48
64053;BME280;50299;49.524;8.536;2023-02-23T03:29:03;100117.75;;;7.44;90.12
64053;BME280;50299;49.524;8.536;2023-02-23T03:32:06;100120.34;;;7.40;87.57
64053;BME280;50299;49.524;8.536;2023-02-23T03:35:06;100122.59;;;7.38;89.79
64053;BME280;50299;49.524;8.536;2023-02-23T03:38:40;100123.72;;;7.37;89.61
64053;BME280;50299;49.524;8.536;2023-02-23T03:41:27;100120.31;;;7.32;87.79
64053;BME280;50299;49.524;8.536;2023-02-23T03:44:17;100124.72;;;7.42;89.92
64053;BME280;50299;49.524;8.536;2023-02-23T03:47:05;100126.28;;;7.34;85.03
64053;BME280;50299;49.524;8.536;2023-02-23T03:49:53;100124.97;;;7.31;89.25
64053;BME280;50299;49.524;8.536;2023-02-23T03:52:45;100127.72;;;7.31;88.41
64053;BME280;50299;49.524;8.536;2023-02-23T03:55:36;100134.81;;;7.24;82.85
64053;BME280;50299;49.524;8.536;2023-02-23T03:58:28;100127.09;;;7.34;89.09
64053;BME280;50299;49.524;8.536;2023-02-23T04:01:15;100130.50;;;7.40;89.88
64053;BME280;50299;49.524;8.536;2023-02-23T04:04:02;100125.00;;;7.40;87.35
64053;BME280;50299;49.524;8.536;2023-02-23T04:06:49;100122.22;;;7.31;86.62
64053;BME280;50299;49.524;8.536;2023-02-23T04:09:35;100122.22;;;7.31;89.40
64053;BME280;50299;49.524;8.536;2023-02-23T04:12:26;100132.38;;;7.22;83.95
64053;BME280;50299;49.524;8.536;2023-02-23T04:15:34;100130.56;;;7.18;83.79
64053;BME280;50299;49.524;8.536;2023-02-23T04:18:04;100142.41;;;7.27;90.98
64053;BME280;50299;49.524;8.536;2023-02-23T04:20:31;100135.16;;;7.31;83.49
64053;BME280;50299;49.524;8.536;2023-02-23T04:22:57;100134.50;;;7.25;85.23
64053;BME280;50299;49.524;8.536;2023-02-23T04:25:24;100136.38;;;7.47;91.18
64053;BME280;50299;49.524;8.536;2023-02-23T04:27:51;100131.22;;;7.46;85.94
64053;BME280;50299;49.524;8.536;2023-02-23T04:30:18;100126.72;;;7.50;85.49
64053;BME280;50299;49.524;8.536;2023-02-23T04:32:45;100138.75;;;7.62;87.83
64053;BME280;50299;49.524;8.536;2023-02-23T04:35:12;100137.53;;;7.77;86.69
64053;BME280;50299;49.524;8.536;2023-02-23T04:37:38;100137.38;;;7.74;85.92
64053;BME280;50299;49.524;8.536;2023-02-23T04:40:06;100135.09;;;7.76;83.69
64053;BME280;50299;49.524;8.536;2023-02-23T04:42:32;100136.06;;;7.80;86.37
64053;BME280;50299;49.524;8.536;2023-02-23T04:44:58;100134.94;;;7.81;85.17
64053;BME280;50299;49.524;8.536;2023-02-23T04:47:25;100149.84;;;7.80;80.96
64053;BME280;50299;49.524;8.536;2023-02-23T04:49:51;100145.59;;;7.65;82.35
64053;BME280;50299;49.524;8.536;2023-02-23T04:52:19;100145.25;;;7.67;84.16
64053;BME280;50299;49.524;8.536;2023-02-23T04:54:45;100146.50;;;7.60;80.68
64053;BME280;50299;49.524;8.536;2023-02-23T04:57:11;100148.53;;;7.46;81.02
64053;BME280;50299;49.524;8.536;2023-02-23T04:59:38;100142.66;;;7.39;83.70
64053;BME280;50299;49.524;8.536;2023-02-23T05:02:04;100149.84;;;7.26;82.48
64053;BME280;50299;49.524;8.536;2023-02-23T05:04:31;100158.19;;;7.12;81.35
64053;BME280;50299;49.524;8.536;2023-02-23T05:07:01;100153.47;;;6.90;83.74
64053;BME280;50299;49.524;8.536;2023-02-23T05:09:29;100149.97;;;6.99;88.08
64053;BME280;50299;49.524;8.536;2023-02-23T05:11:56;100149.06;;;7.03;84.08
64053;BME280;50299;49.524;8.536;2023-02-23T05:14:22;100155.13;;;6.92;82.66
64053;BME280;50299;49.524;8.536;2023-02-23T05:16:48;100154.00;;;6.93;83.17
64053;BME280;50299;49.524;8.536;2023-02-23T05:19:15;100149.56;;;6.83;84.06
64053;BME280;50299;49.524;8.536;2023-02-23T05:21:42;100143.38;;;7.00;84.83
64053;BME280;50299;49.524;8.536;2023-02-23T05:24:08;100140.75;;;7.17;86.69
64053;BME280;50299;49.524;8.536;2023-02-23T05:26:34;100146.34;;;7.34;89.48
64053;BME280;50299;49.524;8.536;2023-02-23T05:29:01;100146.09;;;7.45;86.81
64053;BME280;50299;49.524;8.536;2023-02-23T05:31:27;100146.47;;;7.52;85.09
64053;BME280;50299;49.524;8.536;2023-02-23T05:33:54;100143.78;;;7.38;84.30
64053;BME280;50299;49.524;8.536;2023-02-23T05:36:20;100148.19;;;7.17;82.47
64053;BME280;50299;49.524;8.536;2023-02-23T05:38:47;100149.84;;;7.26;86.35
64053;BME280;50299;49.524;8.536;2023-02-23T05:41:16;100155.59;;;7.38;82.91
64053;BME280;50299;49.524;8.536;2023-02-23T05:43:44;100147.78;;;7.54;88.19
64053;BME280;50299;49.524;8.536;2023-02-23T05:46:13;100147.56;;;7.73;91.12
64053;BME280;50299;49.524;8.536;2023-02-23T05:48:40;100148.44;;;7.91;88.38
64053;BME280;50299;49.524;8.536;2023-02-23T05:51:09;100159.13;;;8.01;86.71
64053;BME280;50299;49.524;8.536;2023-02-23T05:53:37;100157.56;;;8.18;88.66
64053;BME280;50299;49.524;8.536;2023-02-23T05:56:06;100158.53;;;8.22;86.31
64053;BME280;50299;49.524;8.536;2023-02-23T05:58:33;100158.38;;;8.18;82.52
64053;BME280;50299;49.524;8.536;2023-02-23T06:01:00;100154.69;;;8.23;88.64
64053;BME280;50299;49.524;8.536;2023-02-23T06:03:26;100148.88;;;8.33;88.75
64053;BME280;50299;49.524;8.536;2023-02-23T06:05:55;100149.03;;;8.36;86.68
64053;BME280;50299;49.524;8.536;2023-02-23T06:08:23;100151.94;;;8.31;84.40
64053;BME280;50299;49.524;8.536;2023-02-23T06:10:51;100155.81;;;8.30;83.57
64053;BME280;50299;49.524;8.536;2023-02-23T06:13:17;100156.28;;;8.15;82.63
64053;BME280;50299;49.524;8.536;2023-02-23T06:15:44;100151.44;;;8.21;85.24
64053;BME280;50299;49.524;8.536;2023-02-23T06:18:10;100153.38;;;8.29;87.93
64053;BME280;50299;49.524;8.536;2023-02-23T06:20:37;100162.31;;;8.34;84.68
64053;BME280;50299;49.524;8.536;2023-02-23T06:23:05;100162.97;;;8.31;82.41
64053;BME280;50299;49.524;8.536;2023-02-23T06:25:32;100163.78;;;8.32;83.55
64053;BME280;50299;49.524;8.536;2023-02-23T06:27:59;100172.84;;;8.41;88.52
64053;BME280;50299;49.524;8.536;2023-02-23T06:30:25;100171.59;;;8.47;85.95
64053;BME280;50299;49.524;8.536;2023-02-23T06:32:51;100176.59;;;8.54;88.78
64053;BME280;50299;49.524;8.536;2023-02-23T06:35:18;100168.69;;;8.61;88.09
64053;BME280;50299;49.524;8.536;2023-02-23T06:37:44;100178.56;;;8.62;85.96
64053;BME280;50299;49.524;8.536;2023-02-23T06:40:11;100179.56;;;8.66;85.79
64053;BME280;50299;49.524;8.536;2023-02-23T06:42:37;100177.97;;;8.74;88.68
64053;BME280;50299;49.524;8.536;2023-02-23T06:45:04;100183.63;;;8.77;85.12
64053;BME280;50299;49.524;8.536;2023-02-23T06:47:31;100180.38;;;8.75;83.95
64053;BME280;50299;49.524;8.536;2023-02-23T06:52:40;100188.19;;;8.82;83.22
64053;BME280;50299;49.524;8.536;2023-02-23T06:55:07;100186.06;;;8.79;84.04
64053;BME280;50299;49.524;8.536;2023-02-23T06:57:34;100190.59;;;8.83;84.21
64053;BME280;50299;49.524;8.536;2023-02-23T07:00:00;100188.34;;;8.85;85.88
64053;BME280;50299;49.524;8.536;2023-02-23T07:02:26;100195.97;;;8.88;84.87
64053;BME280;50299;49.524;8.536;2023-02-23T07:04:53;100193.34;;;8.92;84.79
64053;BME280;50299;49.524;8.536;2023-02-23T07:07:20;100200.69;;;8.97;85.87
64053;BME280;50299;49.524;8.536;2023-02-23T07:09:47;100201.94;;;9.08;87.33
64053;BME280;50299;49.524;8.536;2023-02-23T07:12:13;100202.78;;;9.17;86.52
64053;BME280;50299;49.524;8.536;2023-02-23T07:14:40;100205.66;;;9.21;85.79
64053;BME280;50299;49.524;8.536;2023-02-23T07:17:06;100209.25;;;9.21;85.27
64053;BME280;50299;49.524;8.536;2023-02-23T07:19:32;100212.50;;;9.23;81.28
64053;BME280;50299;49.524;8.536;2023-02-23T07:22:00;100211.03;;;9.26;85.06
64053;BME280;50299;49.524;8.536;2023-02-23T07:24:26;100207.94;;;9.27;82.66
64053;BME280;50299;49.524;8.536;2023-02-23T07:26:54;100207.78;;;9.15;78.56
64053;BME280;50299;49.524;8.536;2023-02-23T07:29:20;100212.00;;;8.86;80.91
64053;BME280;50299;49.524;8.536;2023-02-23T07:31:49;100213.31;;;8.98;86.42
64053;BME280;50299;49.524;8.536;2023-02-23T07:34:16;100216.53;;;9.00;78.38
64053;BME280;50299;49.524;8.536;2023-02-23T07:36:42;100214.94;;;8.99;81.74
64053;BME280;50299;49.524;8.536;2023-02-23T07:39:09;100215.41;;;8.92;83.87
64053;BME280;50299;49.524;8.536;2023-02-23T07:41:35;100220.28;;;8.95;83.46
64053;BME280;50299;49.524;8.536;2023-02-23T07:44:02;100223.22;;;8.99;80.80
64053;BME280;50299;49.524;8.536;2023-02-23T07:46:28;100232.91;;;8.96;79.45
64053;BME280;50299;49.524;8.536;2023-02-23T07:48:55;100222.41;;;8.98;82.99
64053;BME280;50299;49.524;8.536;2023-02-23T07:51:21;100224.34;;;8.98;82.50
64053;BME280;50299;49.524;8.536;2023-02-23T07:53:48;100231.81;;;9.06;82.90
64053;BME280;50299;49.524;8.536;2023-02-23T07:56:14;100229.34;;;8.87;76.61
64053;BME280;50299;49.524;8.536;2023-02-23T07:58:42;100232.44;;;8.77;80.89
64053;BME280;50299;49.524;8.536;2023-02-23T08:01:10;100223.16;;;8.64;82.20
64053;BME280;50299;49.524;8.536;2023-02-23T08:03:37;100224.19;;;8.85;88.70
64053;BME280;50299;49.524;8.536;2023-02-23T08:06:05;100229.22;;;9.01;84.62
64053;BME280;50299;49.524;8.536;2023-02-23T08:08:31;100239.28;;;9.05;78.21
64053;BME280;50299;49.524;8.536;2023-02-23T08:11:01;100240.72;;;9.03;79.44
64053;BME280;50299;49.524;8.536;2023-02-23T08:13:28;100238.47;;;9.05;76.36
64053;BME280;50299;49.524;8.536;2023-02-23T08:15:55;100240.56;;;8.99;80.53
64053;BME280;50299;49.524;8.536;2023-02-23T08:18:22;100239.91;;;9.02;82.35
64053;BME280;50299;49.524;8.536;2023-02-23T08:20:48;100237.47;;;8.92;80.49
64053;BME280;50299;49.524;8.536;2023-02-23T08:23:15;100243.28;;;8.65;76.48
64053;BME280;50299;49.524;8.536;2023-02-23T08:25:44;100246.78;;;8.48;78.37
64053;BME280;50299;49.524;8.536;2023-02-23T08:28:11;100241.31;;;8.17;81.79
64053;BME280;50299;49.524;8.536;2023-02-23T08:30:39;100244.25;;;8.20;78.93
64053;BME280;50299;49.524;8.536;2023-02-23T08:33:06;100247.81;;;8.21;77.01
64053;BME280;50299;49.524;8.536;2023-02-23T08:35:33;100245.63;;;8.40;80.33
64053;BME280;50299;49.524;8.536;2023-02-23T08:37:59;100247.16;;;8.15;78.57
64053;BME280;50299;49.524;8.536;2023-02-23T08:40:26;100251.53;;;8.25;77.23
64053;BME280;50299;49.524;8.536;2023-02-23T08:42:52;100242.03;;;7.69;79.43
64053;BME280;50299;49.524;8.536;2023-02-23T08:45:19;100261.84;;;7.34;78.84
64053;BME280;50299;49.524;8.536;2023-02-23T08:47:45;100249.00;;;7.66;79.49
64053;BME280;50299;49.524;8.536;2023-02-23T08:50:13;100245.84;;;7.81;82.02
64053;BME280;50299;49.524;8.536;2023-02-23T08:52:39;100251.66;;;7.80;78.22
64053;BME280;50299;49.524;8.536;2023-02-23T08:55:06;100250.09;;;7.87;80.26
64053;BME280;50299;49.524;8.536;2023-02-23T08:57:33;100250.94;;;7.97;77.42
64053;BME280;50299;49.524;8.536;2023-02-23T09:00:00;100248.31;;;7.92;78.17
64053;BME280;50299;49.524;8.536;2023-02-23T09:02:29;100256.22;;;7.84;77.56
64053;BME280;50299;49.524;8.536;2023-02-23T09:04:55;100250.50;;;8.03;81.19
64053;BME280;50299;49.524;8.536;2023-02-23T09:07:22;100263.06;;;8.27;77.66
64053;BME280;50299;49.524;8.536;2023-02-23T09:09:54;100257.78;;;8.48;78.53
64053;BME280;50299;49.524;8.536;2023-02-23T09:12:21;100254.56;;;8.63;75.78
64053;BME280;50299;49.524;8.536;2023-02-23T09:14:47;100255.31;;;8.86;75.14
64053;BME280;50299;49.524;8.536;2023-02-23T09:17:14;100262.16;;;9.06;74.62
64053;BME280;50299;49.524;8.536;2023-02-23T09:19:43;100252.38;;;9.08;75.29
64053;BME280;50299;49.524;8.536;2023-02-23T09:22:09;100258.56;;;9.31;79.31
64053;BME280;50299;49.524;8.536;2023-02-23T09:24:36;100258.38;;;9.71;77.05
64053;BME280;50299;49.524;8.536;2023-02-23T09:27:04;100257.63;;;10.09;75.00
64053;BME280;50299;49.524;8.536;2023-02-23T09:29:33;100257.91;;;10.54;81.00
64053;BME280;50299;49.524;8.536;2023-02-23T09:31:59;100257.78;;;11.01;79.36
64053;BME280;50299;49.524;8.536;2023-02-23T09:34:25;100267.59;;;11.20;65.75
64053;BME280;50299;49.524;8.536;2023-02-23T09:36:55;100266.63;;;11.37;77.56
64053;BME280;50299;49.524;8.536;2023-02-23T09:39:22;100262.38;;;10.76;61.98
64053;BME280;50299;49.524;8.536;2023-02-23T09:42:22;100267.84;;;10.85;64.27
64053;BME280;50299;49.524;8.536;2023-02-23T09:45:00;100269.94;;;10.88;64.06
64053;BME280;50299;49.524;8.536;2023-02-23T09:48:01;100269.00;;;10.84;65.41
64053;BME280;50299;49.524;8.536;2023-02-23T09:50:33;100279.78;;;10.98;61.81
64053;BME280;50299;49.524;8.536;2023-02-23T09:53:07;100275.66;;;10.83;64.64
64053;BME280;50299;49.524;8.536;2023-02-23T09:55:38;100267.56;;;10.69;69.71
64053;BME280;50299;49.524;8.536;2023-02-23T09:58:17;100273.00;;;10.27;63.36
64053;BME280;50299;49.524;8.536;2023-02-23T10:01:03;100276.66;;;10.02;70.41
64053;BME280;50299;49.524;8.536;2023-02-23T10:03:38;100280.34;;;10.15;67.73
64053;BME280;50299;49.524;8.536;2023-02-23T10:06:08;100280.47;;;10.27;65.45
64053;BME280;50299;49.524;8.536;2023-02-23T10:14:06;100282.84;;;11.05;71.32
64053;BME280;50299;49.524;8.536;2023-02-23T10:16:47;100284.47;;;11.48;74.92
64053;BME280;50299;49.524;8.536;2023-02-23T10:19:31;100282.28;;;11.74;64.40
64053;BME280;50299;49.524;8.536;2023-02-23T10:22:04;100285.41;;;11.52;64.91
64053;BME280;50299;49.524;8.536;2023-02-23T10:24:36;100288.63;;;11.54;60.91
64053;BME280;50299;49.524;8.536;2023-02-23T10:27:17;100286.00;;;11.37;59.79
64053;BME280;50299;49.524;8.536;2023-02-23T10:29:55;100292.81;;;11.39;61.84
64053;BME280;50299;49.524;8.536;2023-02-23T10:35:25;100292.19;;;11.54;58.61
64053;BME280;50299;49.524;8.536;2023-02-23T10:37:55;100296.38;;;11.60;56.79
64053;BME280;50299;49.524;8.536;2023-02-23T10:40:25;100292.13;;;11.63;62.62
64053;BME280;50299;49.524;8.536;2023-02-23T10:42:55;100286.38;;;11.68;58.48
64053;BME280;50299;49.524;8.536;2023-02-23T10:45:24;100296.19;;;11.99;58.37
64053;BME280;50299;49.524;8.536;2023-02-23T10:47:57;100283.31;;;12.27;59.41
64053;BME280;50299;49.524;8.536;2023-02-23T10:50:24;100289.81;;;12.44;57.92
64053;BME280;50299;49.524;8.536;2023-02-23T10:53:29;100287.25;;;12.39;56.45
64053;BME280;50299;49.524;8.536;2023-02-23T10:56:09;100286.53;;;12.17;54.34
64053;BME280;50299;49.524;8.536;2023-02-23T10:58:44;100287.34;;;12.05;62.63
64053;BME280;50299;49.524;8.536;2023-02-23T11:01:14;100301.59;;;11.41;54.45
64053;BME280;50299;49.524;8.536;2023-02-23T11:03:47;100283.63;;;11.26;57.78
64053;BME280;50299;49.524;8.536;2023-02-23T11:06:33;100290.88;;;11.40;66.35
64053;BME280;50299;49.524;8.536;2023-02-23T11:12:20;100291.59;;;11.49;55.51
64053;BME280;50299;49.524;8.536;2023-02-23T11:14:53;100295.59;;;11.60;60.69
64053;BME280;50299;49.524;8.536;2023-02-23T11:17:34;100286.25;;;11.86;56.84
64053;BME280;50299;49.524;8.536;2023-02-23T11:20:21;100284.59;;;12.30;57.19
64053;BME280;50299;49.524;8.536;2023-02-23T11:22:55;100282.66;;;12.92;61.66
64053;BME280;50299;49.524;8.536;2023-02-23T11:25:35;100275.22;;;13.36;59.52
64053;BME280;50299;49.524;8.536;2023-02-23T11:28:03;100272.84;;;13.91;56.39
64053;BME280;50299;49.524;8.536;2023-02-23T11:30:35;100275.25;;;13.92;51.08
64053;BME280;50299;49.524;8.536;2023-02-23T11:33:04;100271.50;;;14.00;50.13
64053;BME280;50299;49.524;8.536;2023-02-23T11:35:37;100275.38;;;13.68;48.40
64053;BME280;50299;49.524;8.536;2023-02-23T11:38:26;100268.78;;;13.88;50.93
64053;BME280;50299;49.524;8.536;2023-02-23T11:41:04;100267.72;;;13.37;50.06
64053;BME280;50299;49.524;8.536;2023-02-23T11:43:32;100270.38;;;12.31;50.10
64053;BME280;50299;49.524;8.536;2023-02-23T11:46:00;100264.28;;;12.50;50.63
64053;BME280;50299;49.524;8.536;2023-02-23T11:48:31;100261.41;;;12.83;51.83
64053;BME280;50299;49.524;8.536;2023-02-23T11:50:58;100256.06;;;12.42;50.34
64053;BME280;50299;49.524;8.536;2023-02-23T11:53:31;100258.00;;;12.17;54.94
64053;BME280;50299;49.524;8.536;2023-02-23T11:56:01;100252.63;;;12.69;55.70
64053;BME280;50299;49.524;8.536;2023-02-23T11:58:38;100252.94;;;12.92;49.72
64053;BME280;50299;49.524;8.536;2023-02-23T12:01:12;100256.88;;;12.42;49.90
64053;BME280;50299;49.524;8.536;2023-02-23T12:06:36;100235.00;;;13.02;50.87
64053;BME280;50299;49.524;8.536;2023-02-23T12:09:19;100239.88;;;13.61;53.19
64053;BME280;50299;49.524;8.536;2023-02-23T12:11:53;100229.31;;;13.67;49.01
64053;BME280;50299;49.524;8.536;2023-02-23T12:14:31;100229.19;;;13.91;46.12
64053;BME280;50299;49.524;8.536;2023-02-23T12:17:04;100228.97;;;13.68;45.90
64053;BME280;50299;49.524;8.536;2023-02-23T12:19:43;100231.06;;;13.31;45.83
64053;BME280;50299;49.524;8.536;2023-02-23T12:22:15;100220.25;;;12.37;48.42
64053;BME280;50299;49.524;8.536;2023-02-23T12:24:51;100228.22;;;11.89;48.01
64053;BME280;50299;49.524;8.536;2023-02-23T12:27:26;100229.72;;;11.32;51.41
64053;BME280;50299;49.524;8.536;2023-02-23T12:30:02;100215.97;;;11.57;52.54
64053;BME280;50299;49.524;8.536;2023-02-23T12:35:33;100222.44;;;12.06;50.32
64053;BME280;50299;49.524;8.536;2023-02-23T12:38:14;100213.06;;;11.53;51.99
64053;BME280;50299;49.524;8.536;2023-02-23T12:40:43;100217.22;;;11.59;54.35
64053;BME280;50299;49.524;8.536;2023-02-23T12:43:16;100215.66;;;11.38;51.63
64053;BME280;50299;49.524;8.536;2023-02-23T12:45:54;100215.22;;;11.35;55.46
64053;BME280;50299;49.524;8.536;2023-02-23T12:51:43;100210.91;;;10.84;53.83
64053;BME280;50299;49.524;8.536;2023-02-23T12:54:14;100211.78;;;10.76;55.89
64053;BME280;50299;49.524;8.536;2023-02-23T12:56:53;100214.84;;;11.04;56.61
64053;BME280;50299;49.524;8.536;2023-02-23T13:02:43;100211.50;;;10.90;56.67
64053;BME280;50299;49.524;8.536;2023-02-23T13:05:20;100205.78;;;11.16;53.50
64053;BME280;50299;49.524;8.536;2023-02-23T13:08:00;100210.63;;;11.40;55.00
64053;BME280;50299;49.524;8.536;2023-02-23T13:13:29;100199.19;;;11.74;52.73
64053;BME280;50299;49.524;8.536;2023-02-23T13:16:07;100197.25;;;11.87;52.93
64053;BME280;50299;49.524;8.536;2023-02-23T13:18:48;100204.09;;;11.90;54.66
64053;BME280;50299;49.524;8.536;2023-02-23T13:21:38;100202.00;;;12.11;50.45
64053;BME280;50299;49.524;8.536;2023-02-23T13:24:12;100201.53;;;11.72;50.56
64053;BME280;50299;49.524;8.536;2023-02-23T13:26:56;100206.22;;;11.72;52.62
64053;BME280;50299;49.524;8.536;2023-02-23T13:32:01;100206.09;;;11.68;54.63
64053;BME280;50299;49.524;8.536;2023-02-23T13:34:35;100207.44;;;11.62;52.80
64053;BME280;50299;49.524;8.536;2023-02-23T13:37:06;100210.16;;;11.71;49.73
64053;BME280;50299;49.524;8.536;2023-02-23T13:39:42;100204.44;;;11.01;51.82
64053;BME280;50299;49.524;8.536;2023-02-23T13:42:19;100208.69;;;10.77;55.44
64053;BME280;50299;49.524;8.536;2023-02-23T13:47:38;100209.28;;;11.25;52.79
64053;BME280;50299;49.524;8.536;2023-02-23T13:50:22;100208.03;;;10.51;54.64
64053;BME280;50299;49.524;8.536;2023-02-23T13:52:53;100210.59;;;11.06;52.48
64053;BME280;50299;49.524;8.536;2023-02-23T13:58:18;100211.34;;;10.95;53.41
64053;BME280;50299;49.524;8.536;2023-02-23T14:01:04;100209.72;;;11.15;53.16
64053;BME280;50299;49.524;8.536;2023-02-23T14:03:40;100197.63;;;10.77;53.65
64053;BME280;50299;49.524;8.536;2023-02-23T14:06:11;100211.66;;;11.14;53.03
64053;BME280;50299;49.524;8.536;2023-02-23T14:08:40;100210.66;;;11.19;50.56
64053;BME280;50299;49.524;8.536;2023-02-23T14:11:08;100197.41;;;11.24;53.99
64053;BME280;50299;49.524;8.536;2023-02-23T14:13:40;100197.75;;;11.23;50.38
64053;BME280;50299;49.524;8.536;2023-02-23T14:16:10;100204.28;;;11.18;50.22
64053;BME280;50299;49.524;8.536;2023-02-23T14:19:13;100206.09;;;11.14;50.29